createdAt,value
2023-01-25T00:00:24.894Z,0.46
2023-01-25T00:02:52.571Z,0.48
2023-01-25T00:05:20.173Z,0.38
2023-01-25T00:07:47.956Z,0.39
2023-01-25T00:10:15.754Z,0.41
2023-01-25T00:12:43.356Z,0.42
2023-01-25T00:15:12.034Z,0.39
2023-01-25T00:17:41.082Z,0.41
2023-01-25T00:20:10.137Z,0.39
2023-01-25T00:22:37.801Z,0.41
2023-01-25T00:25:06.469Z,0.43
2023-01-25T00:27:34.265Z,0.44
2023-01-25T00:30:01.863Z,0.36
2023-01-25T00:32:34.935Z,0.39
2023-01-25T00:35:04.036Z,0.35
2023-01-25T00:37:37.657Z,0.39
2023-01-25T00:40:06.848Z,0.39
2023-01-25T00:42:34.525Z,0.40
2023-01-25T00:45:02.163Z,0.38
2023-01-25T00:47:30.159Z,0.34
2023-01-25T00:49:57.783Z,0.34
2023-01-25T00:52:28.585Z,0.29
2023-01-25T00:54:57.075Z,0.32
2023-01-25T00:57:24.751Z,0.36
2023-01-25T00:59:52.333Z,0.41
2023-01-25T01:02:19.969Z,0.44
2023-01-25T01:04:47.711Z,0.37
2023-01-25T01:07:16.050Z,0.38
2023-01-25T01:09:45.006Z,0.39
2023-01-25T01:12:12.645Z,0.45
2023-01-25T01:14:40.349Z,0.40
2023-01-25T01:17:07.995Z,0.35
2023-01-25T01:19:35.864Z,0.39
2023-01-25T01:22:03.545Z,0.36
2023-01-25T01:24:31.220Z,0.38
2023-01-25T01:27:00.186Z,0.37
2023-01-25T01:29:27.778Z,0.40
2023-01-25T01:31:56.361Z,0.40
2023-01-25T01:34:24.060Z,0.41
2023-01-25T01:36:52.129Z,0.41
2023-01-25T01:39:19.774Z,0.38
2023-01-25T01:41:47.452Z,0.33
2023-01-25T01:44:18.878Z,0.29
2023-01-25T01:46:50.472Z,0.27
2023-01-25T01:49:21.302Z,0.28
2023-01-25T01:51:51.446Z,0.29
2023-01-25T01:54:24.155Z,0.34
2023-01-25T01:56:55.636Z,0.29
2023-01-25T01:59:27.514Z,0.26
2023-01-25T02:01:55.660Z,0.27
2023-01-25T02:04:24.175Z,0.29
2023-01-25T02:06:54.899Z,0.30
2023-01-25T02:09:24.957Z,0.30
2023-01-25T02:11:53.367Z,0.28
2023-01-25T02:14:21.617Z,0.26
2023-01-25T02:16:50.636Z,0.26
2023-01-25T02:19:25.599Z,0.27
2023-01-25T02:21:54.486Z,0.26
2023-01-25T02:24:25.306Z,0.29
2023-01-25T02:26:54.588Z,0.28
2023-01-25T02:29:24.119Z,0.30
2023-01-25T02:31:53.713Z,0.27
2023-01-25T02:34:21.431Z,0.16
2023-01-25T02:36:49.037Z,0.16
2023-01-25T02:39:20.052Z,0.18
2023-01-25T02:41:48.964Z,0.19
2023-01-25T02:44:19.767Z,0.20
2023-01-25T02:46:47.911Z,0.17
2023-01-25T02:49:16.690Z,0.19
2023-01-25T02:51:46.068Z,0.23
2023-01-25T02:54:15.139Z,0.25
2023-01-25T02:56:42.768Z,0.18
2023-01-25T02:59:10.506Z,0.13
2023-01-25T03:01:40.747Z,0.12
2023-01-25T03:04:08.923Z,0.07
2023-01-25T03:06:36.864Z,0.09
2023-01-25T03:09:05.002Z,0.10
2023-01-25T03:11:32.921Z,0.09
2023-01-25T03:14:00.556Z,0.08
2023-01-25T03:16:28.245Z,0.01
2023-01-25T03:18:57.362Z,0.01
2023-01-25T03:21:25.461Z,0.02
2023-01-25T03:23:57.330Z,0.03
2023-01-25T03:26:26.378Z,0.00
2023-01-25T03:28:54.049Z,-0.02
2023-01-25T03:31:21.852Z,0.02
2023-01-25T03:33:49.835Z,0.02
2023-01-25T03:36:18.949Z,-0.02
2023-01-25T03:38:46.600Z,0.04
2023-01-25T03:41:14.990Z,0.05
2023-01-25T03:43:42.605Z,0.02
2023-01-25T03:46:10.323Z,0.05
2023-01-25T03:48:37.946Z,0.08
2023-01-25T03:51:05.704Z,0.11
2023-01-25T03:53:34.706Z,0.14
2023-01-25T03:56:04.191Z,0.18
2023-01-25T03:58:32.201Z,0.21
2023-01-25T04:01:02.457Z,0.22
2023-01-25T04:03:31.423Z,0.23
2023-01-25T04:05:59.722Z,0.23
2023-01-25T04:08:27.429Z,0.18
2023-01-25T04:10:57.734Z,0.11
2023-01-25T04:13:27.045Z,0.09
2023-01-25T04:15:55.260Z,0.12
2023-01-25T04:18:22.996Z,0.11
2023-01-25T04:20:53.579Z,0.06
2023-01-25T04:23:21.253Z,-0.05
2023-01-25T04:25:53.848Z,-0.04
2023-01-25T04:28:23.100Z,0.01
2023-01-25T04:30:51.132Z,0.04
2023-01-25T04:33:18.792Z,0.02
2023-01-25T04:35:46.499Z,-0.02
2023-01-25T04:38:14.286Z,0.01
2023-01-25T04:40:45.395Z,0.00
2023-01-25T04:43:14.496Z,-0.04
2023-01-25T04:45:43.860Z,-0.02
2023-01-25T04:48:13.066Z,-0.09
2023-01-25T04:50:41.564Z,-0.06
2023-01-25T04:53:10.027Z,-0.07
2023-01-25T04:55:37.756Z,-0.09
2023-01-25T04:58:05.394Z,-0.11
2023-01-25T05:00:33.264Z,-0.10
2023-01-25T05:03:02.267Z,-0.12
2023-01-25T05:05:30.078Z,-0.07
2023-01-25T05:07:57.754Z,-0.11
2023-01-25T05:10:25.467Z,-0.08
2023-01-25T05:12:53.069Z,-0.07
2023-01-25T05:15:20.714Z,-0.08
2023-01-25T05:17:48.394Z,-0.12
2023-01-25T05:20:17.773Z,-0.12
2023-01-25T05:22:45.495Z,-0.10
2023-01-25T05:25:27.089Z,-0.08
2023-01-25T05:27:54.785Z,-0.04
2023-01-25T05:30:22.417Z,0.01
2023-01-25T05:32:53.167Z,0.00
2023-01-25T05:35:22.163Z,0.01
2023-01-25T05:37:50.395Z,-0.02
2023-01-25T05:40:18.366Z,-0.01
2023-01-25T05:42:46.039Z,-0.01
2023-01-25T05:45:13.647Z,-0.07
2023-01-25T05:47:41.203Z,-0.09
2023-01-25T05:50:09.845Z,-0.09
2023-01-25T05:52:39.367Z,-0.06
2023-01-25T05:55:08.167Z,-0.07
2023-01-25T05:57:35.996Z,-0.12
2023-01-25T06:00:04.508Z,-0.10
2023-01-25T06:02:32.436Z,-0.30
2023-01-25T06:05:00.118Z,-0.22
2023-01-25T06:07:27.825Z,-0.21
2023-01-25T06:09:56.742Z,-0.25
2023-01-25T06:12:24.490Z,-0.22
2023-01-25T06:14:52.138Z,-0.19
2023-01-25T06:17:19.829Z,-0.24
2023-01-25T06:19:47.426Z,-0.22
2023-01-25T06:22:15.108Z,-0.20
2023-01-25T06:24:42.710Z,-0.19
2023-01-25T06:27:12.740Z,-0.19
2023-01-25T06:29:40.413Z,-0.20
2023-01-25T06:32:08.112Z,-0.21
2023-01-25T06:34:35.732Z,-0.18
2023-01-25T06:37:03.388Z,-0.22
2023-01-25T06:39:30.997Z,-0.31
2023-01-25T06:41:58.594Z,-0.30
2023-01-25T06:44:27.730Z,-0.34
2023-01-25T06:46:55.427Z,-0.31
2023-01-25T06:49:23.139Z,-0.30
2023-01-25T06:51:50.760Z,-0.36
2023-01-25T06:54:18.438Z,-0.34
2023-01-25T06:56:46.195Z,-0.30
2023-01-25T06:59:13.987Z,-0.25
2023-01-25T07:01:42.995Z,-0.24
2023-01-25T07:04:12.342Z,-0.27
2023-01-25T07:06:40.546Z,-0.34
2023-01-25T07:09:09.947Z,-0.45
2023-01-25T07:11:38.024Z,-0.44
2023-01-25T07:14:06.707Z,-0.42
2023-01-25T07:16:38.430Z,-0.41
2023-01-25T07:19:08.300Z,-0.36
2023-01-25T07:21:35.931Z,-0.33
2023-01-25T07:24:05.495Z,-0.29
2023-01-25T07:26:33.704Z,-0.39
2023-01-25T07:29:01.848Z,-0.38
2023-01-25T07:31:29.557Z,-0.39
2023-01-25T07:33:58.578Z,-0.41
2023-01-25T07:36:27.699Z,-0.38
2023-01-25T07:38:56.074Z,-0.34
2023-01-25T07:41:24.699Z,-0.33
2023-01-25T07:43:52.593Z,-0.37
2023-01-25T07:46:20.533Z,-0.41
2023-01-25T07:48:49.579Z,-0.32
2023-01-25T07:51:27.919Z,-0.28
2023-01-25T07:53:58.147Z,-0.33
2023-01-25T07:56:27.644Z,-0.37
2023-01-25T07:58:55.721Z,-0.31
2023-01-25T08:01:25.425Z,-0.24
2023-01-25T08:03:53.703Z,-0.21
2023-01-25T08:06:27.271Z,-0.20
2023-01-25T08:08:55.422Z,-0.25
2023-01-25T08:11:25.907Z,-0.23
2023-01-25T08:13:53.633Z,-0.16
2023-01-25T08:16:22.774Z,-0.16
2023-01-25T08:18:51.642Z,-0.13
2023-01-25T08:21:19.713Z,-0.12
2023-01-25T08:23:47.474Z,-0.12
2023-01-25T08:26:16.819Z,-0.11
2023-01-25T08:28:45.878Z,-0.11
2023-01-25T08:31:14.996Z,-0.08
2023-01-25T08:33:45.108Z,-0.13
2023-01-25T08:36:12.896Z,-0.11
2023-01-25T08:38:40.951Z,-0.05
2023-01-25T08:41:09.694Z,-0.09
2023-01-25T08:43:37.712Z,-0.09
2023-01-25T08:46:07.477Z,-0.12
2023-01-25T08:48:35.136Z,-0.21
2023-01-25T08:51:03.203Z,-0.25
2023-01-25T08:53:31.988Z,-0.21
2023-01-25T08:56:04.485Z,-0.17
2023-01-25T08:58:32.736Z,-0.17
2023-01-25T09:01:04.607Z,-0.18
2023-01-25T09:03:36.082Z,-0.13
2023-01-25T09:06:04.189Z,-0.11
2023-01-25T09:08:31.894Z,-0.11
2023-01-25T09:11:02.412Z,-0.10
2023-01-25T09:13:30.033Z,-0.09
2023-01-25T09:16:01.765Z,-0.11
2023-01-25T09:18:29.564Z,-0.17
2023-01-25T09:20:58.788Z,-0.17
2023-01-25T09:23:26.939Z,-0.23
2023-01-25T09:25:58.221Z,-0.27
2023-01-25T09:28:26.007Z,-0.19
2023-01-25T09:31:18.882Z,-0.20
2023-01-25T09:33:44.766Z,-0.32
2023-01-25T09:36:14.876Z,-0.25
2023-01-25T09:38:43.332Z,-0.18
2023-01-25T09:41:19.300Z,-0.21
2023-01-25T09:44:04.607Z,-0.17
2023-01-25T09:46:41.958Z,-0.15
2023-01-25T09:49:22.866Z,-0.10
2023-01-25T09:52:13.897Z,-0.12
2023-01-25T09:54:46.952Z,-0.09
2023-01-25T09:57:17.168Z,-0.12
2023-01-25T09:59:46.679Z,-0.14
2023-01-25T10:02:25.008Z,-0.16
2023-01-25T10:04:53.435Z,-0.09
2023-01-25T10:07:25.245Z,-0.10
2023-01-25T10:09:58.295Z,-0.07
2023-01-25T10:12:26.830Z,-0.06
2023-01-25T10:14:55.582Z,-0.02
2023-01-25T10:17:28.735Z,-0.02
2023-01-25T10:20:17.014Z,0.02
2023-01-25T10:22:48.562Z,-0.04
2023-01-25T10:25:27.255Z,-0.02
2023-01-25T10:28:04.896Z,0.03
2023-01-25T10:30:36.747Z,0.02
2023-01-25T10:33:12.557Z,-0.01
2023-01-25T10:35:46.879Z,-0.04
2023-01-25T10:38:19.687Z,-0.07
2023-01-25T10:40:51.046Z,-0.04
2023-01-25T10:43:20.196Z,-0.04
2023-01-25T10:45:48.878Z,-0.01
2023-01-25T10:48:19.771Z,-0.05
2023-01-25T10:50:50.057Z,-0.04
2023-01-25T10:53:34.397Z,-0.02
2023-01-25T10:56:24.032Z,-0.09
2023-01-25T10:58:54.461Z,-0.07
2023-01-25T11:01:28.755Z,-0.07
2023-01-25T11:03:56.614Z,-0.12
2023-01-25T11:06:35.672Z,-0.08
2023-01-25T11:09:36.678Z,-0.05
2023-01-25T11:12:05.776Z,-0.04
2023-01-25T11:14:34.385Z,-0.04
2023-01-25T11:17:03.275Z,-0.01
2023-01-25T11:19:34.646Z,0.02
2023-01-25T11:22:04.216Z,0.00
2023-01-25T11:24:34.723Z,-0.01
2023-01-25T11:27:22.731Z,0.02
2023-01-25T11:30:09.964Z,-0.03
2023-01-25T11:32:39.567Z,-0.04
2023-01-25T11:35:13.769Z,-0.06
2023-01-25T11:37:57.596Z,-0.23
2023-01-25T11:40:32.939Z,-0.25
2023-01-25T11:43:06.855Z,-0.34
2023-01-25T11:46:01.809Z,-0.29
2023-01-25T11:48:55.149Z,-0.18
2023-01-25T11:51:27.354Z,-0.15
2023-01-25T11:54:05.475Z,-0.15
2023-01-25T11:56:45.577Z,-0.14
2023-01-25T11:59:30.243Z,-0.13
2023-01-25T12:02:09.914Z,-0.15
2023-01-25T12:04:53.944Z,-0.15
2023-01-25T12:07:28.640Z,-0.15
2023-01-25T12:10:05.800Z,-0.20
2023-01-25T12:12:41.964Z,-0.20
2023-01-25T12:15:19.098Z,-0.15
2023-01-25T12:17:57.765Z,-0.06
2023-01-25T12:20:33.053Z,-0.04
2023-01-25T12:23:14.596Z,-0.09
2023-01-25T12:25:50.190Z,-0.07
2023-01-25T12:28:22.677Z,-0.05
2023-01-25T12:30:54.751Z,0.01
2023-01-25T12:33:26.641Z,0.05
2023-01-25T12:35:59.084Z,0.04
2023-01-25T12:38:29.136Z,-0.06
2023-01-25T12:40:59.385Z,-0.07
2023-01-25T12:43:33.656Z,-0.07
2023-01-25T12:46:13.206Z,-0.05
2023-01-25T12:48:46.141Z,-0.06
2023-01-25T12:51:15.050Z,-0.13
2023-01-25T12:53:47.010Z,-0.13
2023-01-25T12:56:30.197Z,-0.11
2023-01-25T12:59:03.414Z,-0.12
2023-01-25T13:01:34.957Z,-0.15
2023-01-25T13:04:11.857Z,-0.13
2023-01-25T13:06:45.943Z,-0.18
2023-01-25T13:09:21.221Z,-0.17
2023-01-25T13:11:49.487Z,-0.12
2023-01-25T13:14:29.297Z,-0.09
2023-01-25T13:17:11.657Z,-0.28
2023-01-25T13:19:43.432Z,-0.34
2023-01-25T13:22:12.169Z,-0.34
2023-01-25T13:25:09.327Z,-0.31
2023-01-25T13:27:37.078Z,-0.34
2023-01-25T13:30:27.535Z,-0.26
2023-01-25T13:32:58.680Z,-0.23
2023-01-25T13:35:34.915Z,-0.16
2023-01-25T13:38:05.651Z,-0.15
2023-01-25T13:40:35.835Z,-0.14
2023-01-25T13:43:05.227Z,-0.13
2023-01-25T13:45:36.540Z,-0.11
2023-01-25T13:48:07.342Z,-0.18
2023-01-25T13:50:38.041Z,-0.12
2023-01-25T13:53:16.791Z,-0.10
2023-01-25T13:55:46.440Z,-0.01
2023-01-25T13:58:18.665Z,-0.04
2023-01-25T14:00:55.807Z,-0.02
2023-01-25T14:03:27.029Z,-0.09
2023-01-25T14:05:57.073Z,-0.04
2023-01-25T14:08:25.412Z,-0.08
2023-01-25T14:10:53.885Z,0.01
2023-01-25T14:13:21.568Z,-0.08
2023-01-25T14:15:58.303Z,-0.10
2023-01-25T14:18:31.095Z,-0.11
2023-01-25T14:21:13.074Z,-0.15
2023-01-25T14:23:40.834Z,-0.12
2023-01-25T14:26:20.138Z,-0.12
2023-01-25T14:28:59.277Z,-0.19
2023-01-25T14:31:34.142Z,-0.13
2023-01-25T14:34:04.088Z,-0.09
2023-01-25T14:36:35.032Z,-0.06
2023-01-25T14:39:04.874Z,-0.06
2023-01-25T14:41:34.097Z,-0.06
2023-01-25T14:44:04.191Z,-0.02
2023-01-25T14:46:34.619Z,-0.05
2023-01-25T14:49:10.177Z,-0.07
2023-01-25T14:51:42.390Z,-0.10
2023-01-25T14:54:16.903Z,-0.06
2023-01-25T14:56:46.014Z,0.01
2023-01-25T14:59:23.508Z,-0.08
2023-01-25T15:01:54.219Z,-0.07
2023-01-25T15:04:22.040Z,-0.06
2023-01-25T15:06:50.981Z,-0.06
2023-01-25T15:09:39.627Z,-0.11
2023-01-25T15:12:29.037Z,-0.09
2023-01-25T15:14:57.809Z,-0.06
2023-01-25T15:17:40.556Z,-0.05
2023-01-25T15:20:24.533Z,-0.02
2023-01-25T15:22:52.233Z,-0.04
2023-01-25T15:25:24.362Z,-0.07
2023-01-25T15:27:52.395Z,-0.08
2023-01-25T15:30:20.327Z,-0.06
2023-01-25T15:32:49.348Z,-0.18
2023-01-25T15:35:19.609Z,-0.17
2023-01-25T15:37:49.242Z,-0.20
2023-01-25T15:40:18.122Z,-0.26
2023-01-25T15:42:45.752Z,-0.29
2023-01-25T15:45:13.359Z,-0.32
2023-01-25T15:47:41.036Z,-0.28
2023-01-25T15:50:18.610Z,-0.33
2023-01-25T15:52:46.455Z,-0.40
2023-01-25T15:55:15.255Z,-0.42
2023-01-25T15:57:44.069Z,-0.43
2023-01-25T16:00:18.043Z,-0.42
2023-01-25T16:02:45.703Z,-0.41
2023-01-25T16:05:14.842Z,-0.38
2023-01-25T16:07:43.928Z,-0.38
2023-01-25T16:10:20.977Z,-0.36
2023-01-25T16:12:48.857Z,-0.30
2023-01-25T16:15:16.599Z,-0.27
2023-01-25T16:17:44.393Z,-0.29
2023-01-25T16:20:18.376Z,-0.36
2023-01-25T16:22:46.400Z,-0.42
2023-01-25T16:25:14.565Z,-0.41
2023-01-25T16:27:42.183Z,-0.42
2023-01-25T16:30:18.603Z,-0.47
2023-01-25T16:32:46.708Z,-0.47
2023-01-25T16:35:14.564Z,-0.56
2023-01-25T16:37:43.531Z,-0.59
2023-01-25T16:40:22.470Z,-0.57
2023-01-25T16:42:50.430Z,-0.54
2023-01-25T16:45:19.350Z,-0.66
2023-01-25T16:47:47.641Z,-0.61
2023-01-25T16:50:16.429Z,-0.59
2023-01-25T16:52:46.091Z,-0.51
2023-01-25T16:55:22.803Z,-0.50
2023-01-25T16:57:51.589Z,-0.49
2023-01-25T17:00:19.761Z,-0.53
2023-01-25T17:02:58.544Z,-0.65
2023-01-25T17:05:27.771Z,-0.61
2023-01-25T17:07:56.894Z,-0.59
2023-01-25T17:10:24.523Z,-0.58
2023-01-25T17:12:52.217Z,-0.51
2023-01-25T17:15:20.505Z,-0.45
2023-01-25T17:17:49.986Z,-0.41
2023-01-25T17:20:18.150Z,-0.39
2023-01-25T17:22:50.959Z,-0.30
2023-01-25T17:25:19.966Z,-0.22
2023-01-25T17:27:47.684Z,-0.24
2023-01-25T17:30:15.789Z,-0.22
2023-01-25T17:32:43.475Z,-0.19
2023-01-25T17:35:11.111Z,-0.18
2023-01-25T17:37:41.086Z,-0.13
2023-01-25T17:40:11.325Z,-0.13
2023-01-25T17:42:40.542Z,-0.14
2023-01-25T17:45:09.558Z,-0.20
2023-01-25T17:47:37.308Z,-0.19
2023-01-25T17:50:05.274Z,-0.24
2023-01-25T17:52:32.908Z,-0.24
2023-01-25T17:55:00.607Z,-0.26
2023-01-25T17:57:31.269Z,-0.30
2023-01-25T18:00:00.366Z,-0.28
2023-01-25T18:02:28.007Z,-0.27
2023-01-25T18:04:57.794Z,-0.32
2023-01-25T18:07:25.512Z,-0.32
2023-01-25T18:09:53.286Z,-0.31
2023-01-25T18:12:20.945Z,-0.34
2023-01-25T18:14:48.600Z,-0.28
2023-01-25T18:20:14.170Z,-0.38
2023-01-25T18:22:42.691Z,-0.33
2023-01-25T18:25:29.584Z,-0.33
2023-01-25T18:27:57.206Z,-0.42
2023-01-25T18:30:33.055Z,-0.41
2023-01-25T18:33:02.558Z,-0.42
2023-01-25T18:35:30.669Z,-0.56
2023-01-25T18:37:58.498Z,-0.57
2023-01-25T18:40:26.087Z,-0.53
2023-01-25T18:42:54.006Z,-0.46
2023-01-25T18:45:21.815Z,-0.43
2023-01-25T18:47:49.443Z,-0.42
2023-01-25T18:50:18.682Z,-0.42
2023-01-25T18:52:46.477Z,-0.56
2023-01-25T18:55:14.334Z,-0.50
2023-01-25T18:57:44.133Z,-0.48
2023-01-25T19:00:18.441Z,-0.46
2023-01-25T19:02:46.116Z,-0.50
2023-01-25T19:05:14.339Z,-0.57
2023-01-25T19:07:43.312Z,-0.54
2023-01-25T19:10:12.463Z,-0.58
2023-01-25T19:12:40.079Z,-0.66
2023-01-25T19:15:09.252Z,-0.67
2023-01-25T19:17:37.484Z,-0.79
2023-01-25T19:20:06.444Z,-0.81
2023-01-25T19:22:34.052Z,-0.82
2023-01-25T19:25:04.852Z,-0.88
2023-01-25T19:27:32.466Z,-0.88
2023-01-25T19:30:00.224Z,-0.84
2023-01-25T19:32:27.950Z,-0.79
2023-01-25T19:34:55.660Z,-0.74
2023-01-25T19:37:23.387Z,-0.70
2023-01-25T19:39:51.438Z,-0.65
2023-01-25T19:42:20.548Z,-0.68
2023-01-25T19:44:48.801Z,-0.69
2023-01-25T19:47:16.487Z,-0.66
2023-01-25T19:49:44.263Z,-0.72
2023-01-25T19:52:12.159Z,-0.80
2023-01-25T19:54:39.802Z,-0.82
2023-01-25T19:57:07.510Z,-0.81
2023-01-25T19:59:36.594Z,-0.79
2023-01-25T20:02:04.445Z,-0.72
2023-01-25T20:04:32.649Z,-0.69
2023-01-25T20:07:00.347Z,-0.71
2023-01-25T20:09:28.675Z,-0.73
2023-01-25T20:11:57.324Z,-0.77
2023-01-25T20:14:24.990Z,-0.73
2023-01-25T20:16:54.048Z,-0.69
2023-01-25T20:19:21.705Z,-0.73
2023-01-25T20:21:49.362Z,-0.78
2023-01-25T20:24:17.217Z,-0.84
2023-01-25T20:26:45.361Z,-0.84
2023-01-25T20:29:13.589Z,-0.85
2023-01-25T20:31:42.477Z,-0.84
2023-01-25T20:34:15.038Z,-0.86
2023-01-25T20:36:43.539Z,-0.87
2023-01-25T20:39:13.634Z,-0.89
2023-01-25T20:41:41.232Z,-0.87
2023-01-25T20:44:10.037Z,-0.85
2023-01-25T20:46:38.789Z,-0.88
2023-01-25T20:49:07.368Z,-0.87
2023-01-25T20:51:36.888Z,-0.99
2023-01-25T20:54:04.698Z,-0.96
2023-01-25T20:56:32.744Z,-0.94
2023-01-25T20:59:00.404Z,-0.94
2023-01-25T21:01:33.253Z,-0.91
2023-01-25T21:04:00.845Z,-0.98
2023-01-25T21:06:29.226Z,-0.92
2023-01-25T21:08:59.271Z,-0.85
2023-01-25T21:11:27.207Z,-0.82
2023-01-25T21:13:54.937Z,-0.85
2023-01-25T21:16:23.924Z,-0.80
2023-01-25T21:18:54.458Z,-0.80
2023-01-25T21:21:23.660Z,-0.83
2023-01-25T21:23:51.582Z,-0.83
2023-01-25T21:26:22.072Z,-0.82
2023-01-25T21:28:49.899Z,-0.81
2023-01-25T21:31:19.227Z,-0.84
2023-01-25T21:33:47.524Z,-0.85
2023-01-25T21:36:19.435Z,-0.89
2023-01-25T21:38:48.714Z,-0.88
2023-01-25T21:41:19.824Z,-0.85
2023-01-25T21:44:06.996Z,-0.85
2023-01-25T21:46:34.725Z,-0.85
2023-01-25T21:49:21.083Z,-0.86
2023-01-25T21:51:50.655Z,-0.90
2023-01-25T21:54:22.261Z,-0.87
2023-01-25T21:56:51.555Z,-0.82
2023-01-25T21:59:20.588Z,-0.81
2023-01-25T22:01:48.747Z,-0.88
2023-01-25T22:04:17.778Z,-0.88
2023-01-25T22:06:45.981Z,-0.84
2023-01-25T22:09:14.478Z,-0.84
2023-01-25T22:11:42.061Z,-0.80
2023-01-25T22:14:09.729Z,-0.83
2023-01-25T22:16:38.721Z,-0.85
2023-01-25T22:19:06.429Z,-0.80
2023-01-25T22:21:34.858Z,-0.82
2023-01-25T22:24:05.168Z,-0.76
2023-01-25T22:26:35.357Z,-0.75
2023-01-25T22:29:02.969Z,-0.74
2023-01-25T22:31:31.831Z,-0.70
2023-01-25T22:34:01.290Z,-0.67
2023-01-25T22:36:30.311Z,-0.69
2023-01-25T22:39:00.165Z,-0.73
2023-01-25T22:41:30.389Z,-0.73
2023-01-25T22:43:58.617Z,-0.70
2023-01-25T22:46:29.223Z,-0.67
2023-01-25T22:48:57.212Z,-0.71
2023-01-25T22:51:28.426Z,-0.78
2023-01-25T22:53:56.261Z,-0.80
2023-01-25T22:56:26.483Z,-0.76
2023-01-25T22:58:54.144Z,-0.80
2023-01-25T23:01:23.300Z,-0.80
2023-01-25T23:03:51.743Z,-0.85
2023-01-25T23:06:20.412Z,-0.89
2023-01-25T23:08:49.834Z,-0.88
2023-01-25T23:11:19.732Z,-0.86
2023-01-25T23:14:07.553Z,-0.83
2023-01-25T23:16:36.214Z,-0.89
2023-01-25T23:19:03.928Z,-0.93
2023-01-25T23:21:31.790Z,-0.98
2023-01-25T23:24:02.229Z,-1.01
2023-01-25T23:26:34.037Z,-1.07
2023-01-25T23:29:01.654Z,-1.06
2023-01-25T23:31:29.347Z,-1.04
2023-01-25T23:33:59.085Z,-1.11
2023-01-25T23:36:28.697Z,-1.08
2023-01-25T23:38:56.873Z,-1.04
2023-01-25T23:41:27.333Z,-1.01
2023-01-25T23:43:56.018Z,-0.97
2023-01-25T23:46:24.533Z,-1.02
2023-01-25T23:48:52.369Z,-1.06
2023-01-25T23:51:20.859Z,-1.02
2023-01-25T23:53:48.733Z,-1.00
2023-01-25T23:56:18.878Z,-1.00
2023-01-25T23:58:48.032Z,-0.94
